sensor_id;sensor_type;location;lat;lon;timestamp;pressure;altitude;pressure_sealevel;temperature;humidity
18167;BME280;9208;42.688;23.404;2022-07-01T00:02:02;95428.13;;;23.42;92.80
18167;BME280;9208;42.688;23.404;2022-07-01T00:04:28;95432.22;;;23.41;93.10
18167;BME280;9208;42.688;23.404;2022-07-01T00:06:54;95434.28;;;23.41;93.09
18167;BME280;9208;42.688;23.404;2022-07-01T00:09:20;95435.94;;;23.36;92.95
18167;BME280;9208;42.688;23.404;2022-07-01T00:11:45;95440.44;;;23.09;94.14
18167;BME280;9208;42.688;23.404;2022-07-01T00:14:11;95438.00;;;23.06;93.98
18167;BME280;9208;42.688;23.404;2022-07-01T00:16:36;95440.25;;;23.07;93.10
18167;BME280;9208;42.688;23.404;2022-07-01T00:19:03;95447.69;;;23.12;92.72
18167;BME280;9208;42.688;23.404;2022-07-01T00:21:29;95449.56;;;23.10;92.82
18167;BME280;9208;42.688;23.404;2022-07-01T00:23:54;95453.47;;;23.07;93.02
18167;BME280;9208;42.688;23.404;2022-07-01T00:26:22;95454.25;;;23.07;92.56
18167;BME280;9208;42.688;23.404;2022-07-01T00:28:48;95452.19;;;23.00;93.09
18167;BME280;9208;42.688;23.404;2022-07-01T00:31:13;95450.31;;;23.03;93.06
18167;BME280;9208;42.688;23.404;2022-07-01T00:33:39;95453.69;;;23.01;93.25
18167;BME280;9208;42.688;23.404;2022-07-01T00:36:04;95461.69;;;22.97;94.00
18167;BME280;9208;42.688;23.404;2022-07-01T00:38:30;95463.38;;;22.85;95.36
18167;BME280;9208;42.688;23.404;2022-07-01T00:40:55;95454.59;;;22.74;96.56
18167;BME280;9208;42.688;23.404;2022-07-01T00:43:22;95462.44;;;22.75;96.80
18167;BME280;9208;42.688;23.404;2022-07-01T00:45:52;95457.78;;;22.78;96.05
18167;BME280;9208;42.688;23.404;2022-07-01T00:48:19;95465.41;;;22.77;95.51
18167;BME280;9208;42.688;23.404;2022-07-01T00:50:45;95461.13;;;22.69;96.02
18167;BME280;9208;42.688;23.404;2022-07-01T00:53:15;95462.22;;;22.73;95.59
18167;BME280;9208;42.688;23.404;2022-07-01T00:55:41;95462.44;;;22.75;95.32
18167;BME280;9208;42.688;23.404;2022-07-01T00:58:09;95467.81;;;22.73;95.22
18167;BME280;9208;42.688;23.404;2022-07-01T01:00:36;95460.19;;;22.74;94.81
18167;BME280;9208;42.688;23.404;2022-07-01T01:03:05;95463.53;;;22.72;94.90
18167;BME280;9208;42.688;23.404;2022-07-01T01:05:30;95459.63;;;22.68;95.04
18167;BME280;9208;42.688;23.404;2022-07-01T01:07:56;95466.53;;;22.74;94.23
18167;BME280;9208;42.688;23.404;2022-07-01T01:10:21;95466.53;;;22.74;93.61
18167;BME280;9208;42.688;23.404;2022-07-01T01:12:49;95454.59;;;22.74;93.63
18167;BME280;9208;42.688;23.404;2022-07-01T01:15:18;95446.59;;;22.70;93.07
18167;BME280;9208;42.688;23.404;2022-07-01T01:17:44;95457.41;;;22.74;92.96
18167;BME280;9208;42.688;23.404;2022-07-01T01:20:15;95458.88;;;22.75;92.45
18167;BME280;9208;42.688;23.404;2022-07-01T01:22:41;95451.63;;;22.79;91.82
18167;BME280;9208;42.688;23.404;2022-07-01T01:25:07;95457.41;;;22.81;91.28
18167;BME280;9208;42.688;23.404;2022-07-01T01:27:32;95460.03;;;22.87;90.67
18167;BME280;9208;42.688;23.404;2022-07-01T01:30:03;95462.25;;;22.88;90.14
18167;BME280;9208;42.688;23.404;2022-07-01T01:32:30;95457.59;;;22.91;89.99
18167;BME280;9208;42.688;23.404;2022-07-01T01:34:56;95466.00;;;22.91;90.27
18167;BME280;9208;42.688;23.404;2022-07-01T01:37:21;95471.97;;;22.95;89.74
18167;BME280;9208;42.688;23.404;2022-07-01T01:39:46;95471.38;;;22.96;88.78
18167;BME280;9208;42.688;23.404;2022-07-01T01:42:12;95473.25;;;23.09;87.69
18167;BME280;9208;42.688;23.404;2022-07-01T01:44:37;95468.75;;;23.13;87.01
18167;BME280;9208;42.688;23.404;2022-07-01T01:47:03;95476.03;;;23.16;86.40
18167;BME280;9208;42.688;23.404;2022-07-01T01:49:28;95467.66;;;23.16;86.76
18167;BME280;9208;42.688;23.404;2022-07-01T01:51:56;95460.59;;;23.08;87.27
18167;BME280;9208;42.688;23.404;2022-07-01T01:54:22;95456.50;;;23.01;88.53
18167;BME280;9208;42.688;23.404;2022-07-01T01:56:48;95458.16;;;22.97;89.40
18167;BME280;9208;42.688;23.404;2022-07-01T01:59:13;95465.06;;;22.96;88.70
18167;BME280;9208;42.688;23.404;2022-07-01T02:01:39;95466.91;;;22.93;88.43
18167;BME280;9208;42.688;23.404;2022-07-01T02:04:05;95461.31;;;22.93;87.72
18167;BME280;9208;42.688;23.404;2022-07-01T02:06:30;95472.50;;;22.93;87.80
18167;BME280;9208;42.688;23.404;2022-07-01T02:08:56;95472.88;;;22.90;88.92
18167;BME280;9208;42.688;23.404;2022-07-01T02:11:21;95480.31;;;22.80;89.79
18167;BME280;9208;42.688;23.404;2022-07-01T02:13:47;95483.09;;;22.80;89.53
18167;BME280;9208;42.688;23.404;2022-07-01T02:16:12;95486.09;;;22.74;89.21
18167;BME280;9208;42.688;23.404;2022-07-01T02:18:38;95490.19;;;22.73;89.01
18167;BME280;9208;42.688;23.404;2022-07-01T02:21:03;95490.94;;;22.81;88.41
18167;BME280;9208;42.688;23.404;2022-07-01T02:23:29;95493.19;;;22.75;89.38
18167;BME280;9208;42.688;23.404;2022-07-01T02:25:55;95497.09;;;22.72;90.34
18167;BME280;9208;42.688;23.404;2022-07-01T02:28:21;95497.47;;;22.69;91.27
18167;BME280;9208;42.688;23.404;2022-07-01T02:30:46;95494.44;;;22.59;91.90
18167;BME280;9208;42.688;23.404;2022-07-01T02:33:11;95497.78;;;22.50;92.77
18167;BME280;9208;42.688;23.404;2022-07-01T02:35:39;95494.44;;;22.52;93.16
18167;BME280;9208;42.688;23.404;2022-07-01T02:38:06;95504.31;;;22.60;94.05
18167;BME280;9208;42.688;23.404;2022-07-01T02:40:34;95509.75;;;22.66;96.11
18167;BME280;9208;42.688;23.404;2022-07-01T02:43:02;95514.56;;;22.58;98.13
18167;BME280;9208;42.688;23.404;2022-07-01T02:45:28;95510.13;;;22.62;98.18
18167;BME280;9208;42.688;23.404;2022-07-01T02:47:53;95518.50;;;22.62;98.23
18167;BME280;9208;42.688;23.404;2022-07-01T02:50:19;95515.50;;;22.60;99.08
18167;BME280;9208;42.688;23.404;2022-07-01T02:52:45;95519.81;;;22.61;99.37
18167;BME280;9208;42.688;23.404;2022-07-01T02:55:12;95522.00;;;22.55;99.98
18167;BME280;9208;42.688;23.404;2022-07-01T02:57:38;95519.94;;;22.48;100.00
18167;BME280;9208;42.688;23.404;2022-07-01T03:00:05;95522.31;;;22.44;100.00
18167;BME280;9208;42.688;23.404;2022-07-01T03:02:34;95523.25;;;22.39;100.00
18167;BME280;9208;42.688;23.404;2022-07-01T03:05:00;95531.81;;;22.41;100.00
18167;BME280;9208;42.688;23.404;2022-07-01T03:07:25;95536.06;;;22.35;100.00
18167;BME280;9208;42.688;23.404;2022-07-01T03:09:51;95537.38;;;22.34;100.00
18167;BME280;9208;42.688;23.404;2022-07-01T03:12:17;95538.09;;;22.27;100.00
18167;BME280;9208;42.688;23.404;2022-07-01T03:17:28;95542.16;;;22.18;100.00
18167;BME280;9208;42.688;23.404;2022-07-01T03:19:54;95545.53;;;22.24;100.00
18167;BME280;9208;42.688;23.404;2022-07-01T03:22:21;95547.03;;;22.25;100.00
18167;BME280;9208;42.688;23.404;2022-07-01T03:24:47;95547.59;;;22.24;100.00
18167;BME280;9208;42.688;23.404;2022-07-01T03:27:14;95539.75;;;22.22;100.00
18167;BME280;9208;42.688;23.404;2022-07-01T03:29:40;95546.28;;;22.25;100.00
18167;BME280;9208;42.688;23.404;2022-07-01T03:32:06;95550.38;;;22.24;100.00
18167;BME280;9208;42.688;23.404;2022-07-01T03:34:31;95547.75;;;22.26;100.00
18167;BME280;9208;42.688;23.404;2022-07-01T03:36:57;95550.00;;;22.27;100.00
18167;BME280;9208;42.688;23.404;2022-07-01T03:39:22;95551.19;;;22.39;100.00
18167;BME280;9208;42.688;23.404;2022-07-01T03:41:48;95546.91;;;22.38;100.00
18167;BME280;9208;42.688;23.404;2022-07-01T03:44:13;95548.19;;;22.37;100.00
18167;BME280;9208;42.688;23.404;2022-07-01T03:46:39;95545.03;;;22.41;100.00
18167;BME280;9208;42.688;23.404;2022-07-01T03:49:04;95538.03;;;22.47;100.00
18167;BME280;9208;42.688;23.404;2022-07-01T03:51:30;95543.97;;;22.51;100.00
18167;BME280;9208;42.688;23.404;2022-07-01T03:53:55;95548.28;;;22.60;100.00
18167;BME280;9208;42.688;23.404;2022-07-01T03:56:40;95547.94;;;22.71;100.00
18167;BME280;9208;42.688;23.404;2022-07-01T03:59:05;95543.13;;;22.79;99.74
18167;BME280;9208;42.688;23.404;2022-07-01T04:01:30;95553.75;;;22.80;99.42
18167;BME280;9208;42.688;23.404;2022-07-01T04:03:56;95554.69;;;22.83;99.44
18167;BME280;9208;42.688;23.404;2022-07-01T04:06:22;95554.91;;;22.92;99.05
18167;BME280;9208;42.688;23.404;2022-07-01T04:08:47;95562.16;;;23.03;98.37
18167;BME280;9208;42.688;23.404;2022-07-01T04:11:14;95567.97;;;23.05;98.68
18167;BME280;9208;42.688;23.404;2022-07-01T04:13:40;95565.53;;;23.09;99.92
18167;BME280;9208;42.688;23.404;2022-07-01T04:16:06;95561.59;;;23.04;99.97
18167;BME280;9208;42.688;23.404;2022-07-01T04:18:32;95561.22;;;23.00;99.63
18167;BME280;9208;42.688;23.404;2022-07-01T04:20:58;95566.81;;;23.00;99.81
18167;BME280;9208;42.688;23.404;2022-07-01T04:23:42;95570.75;;;23.05;99.77
18167;BME280;9208;42.688;23.404;2022-07-01T04:26:08;95567.19;;;23.04;99.51
18167;BME280;9208;42.688;23.404;2022-07-01T04:28:33;95569.63;;;23.00;100.00
18167;BME280;9208;42.688;23.404;2022-07-01T04:30:59;95575.03;;;22.98;100.00
18167;BME280;9208;42.688;23.404;2022-07-01T04:33:25;95565.72;;;23.11;100.00
18167;BME280;9208;42.688;23.404;2022-07-01T04:35:51;95571.13;;;23.16;100.00
18167;BME280;9208;42.688;23.404;2022-07-01T04:38:16;95568.38;;;23.24;98.75
18167;BME280;9208;42.688;23.404;2022-07-01T04:40:42;95571.53;;;23.35;97.13
18167;BME280;9208;42.688;23.404;2022-07-01T04:43:27;95572.13;;;23.41;95.63
18167;BME280;9208;42.688;23.404;2022-07-01T04:45:53;95575.84;;;23.36;95.32
18167;BME280;9208;42.688;23.404;2022-07-01T04:48:19;95578.06;;;23.38;95.51
18167;BME280;9208;42.688;23.404;2022-07-01T04:50:44;95576.78;;;23.46;95.48
18167;BME280;9208;42.688;23.404;2022-07-01T04:53:10;95573.97;;;23.54;95.69
18167;BME280;9208;42.688;23.404;2022-07-01T04:55:35;95579.75;;;23.63;94.80
18167;BME280;9208;42.688;23.404;2022-07-01T04:58:00;95578.09;;;23.60;94.82
18167;BME280;9208;42.688;23.404;2022-07-01T05:00:26;95574.16;;;23.56;94.96
18167;BME280;9208;42.688;23.404;2022-07-01T05:02:51;95563.53;;;23.62;94.27
18167;BME280;9208;42.688;23.404;2022-07-01T05:05:17;95567.81;;;23.63;94.90
18167;BME280;9208;42.688;23.404;2022-07-01T05:07:42;95569.50;;;23.73;94.11
18167;BME280;9208;42.688;23.404;2022-07-01T05:10:07;95565.53;;;23.76;93.97
18167;BME280;9208;42.688;23.404;2022-07-01T05:12:33;95568.72;;;23.73;93.97
18167;BME280;9208;42.688;23.404;2022-07-01T05:14:59;95569.47;;;23.66;94.75
18167;BME280;9208;42.688;23.404;2022-07-01T05:17:24;95572.09;;;23.71;94.12
18167;BME280;9208;42.688;23.404;2022-07-01T05:20:10;95570.97;;;23.74;94.05
18167;BME280;9208;42.688;23.404;2022-07-01T05:22:54;95572.28;;;23.81;93.41
18167;BME280;9208;42.688;23.404;2022-07-01T05:25:20;95566.84;;;23.90;92.99
18167;BME280;9208;42.688;23.404;2022-07-01T05:27:45;95578.22;;;24.00;91.89
18167;BME280;9208;42.688;23.404;2022-07-01T05:30:11;95574.88;;;24.01;91.12
18167;BME280;9208;42.688;23.404;2022-07-01T05:32:37;95570.97;;;24.04;90.48
18167;BME280;9208;42.688;23.404;2022-07-01T05:35:02;95572.81;;;24.09;90.27
18167;BME280;9208;42.688;23.404;2022-07-01T05:37:28;95573.72;;;24.12;89.60
18167;BME280;9208;42.688;23.404;2022-07-01T05:39:53;95570.91;;;24.19;89.09
18167;BME280;9208;42.688;23.404;2022-07-01T05:42:19;95574.22;;;24.33;88.60
18167;BME280;9208;42.688;23.404;2022-07-01T05:44:44;95575.31;;;24.37;87.35
18167;BME280;9208;42.688;23.404;2022-07-01T05:47:09;95577.94;;;24.43;86.92
18167;BME280;9208;42.688;23.404;2022-07-01T05:49:35;95575.66;;;24.49;86.74
18167;BME280;9208;42.688;23.404;2022-07-01T05:52:00;95578.06;;;24.52;86.18
18167;BME280;9208;42.688;23.404;2022-07-01T05:54:26;95572.09;;;24.56;86.33
18167;BME280;9208;42.688;23.404;2022-07-01T05:56:51;95574.69;;;24.61;86.11
18167;BME280;9208;42.688;23.404;2022-07-01T05:59:17;95574.66;;;24.69;85.69
18167;BME280;9208;42.688;23.404;2022-07-01T06:01:42;95576.69;;;24.76;85.71
18167;BME280;9208;42.688;23.404;2022-07-01T06:04:09;95574.41;;;24.82;84.96
18167;BME280;9208;42.688;23.404;2022-07-01T06:06:34;95576.22;;;24.87;84.08
18167;BME280;9208;42.688;23.404;2022-07-01T06:09:00;95573.97;;;24.93;82.86
18167;BME280;9208;42.688;23.404;2022-07-01T06:11:25;95574.31;;;24.97;81.74
18167;BME280;9208;42.688;23.404;2022-07-01T06:13:51;95581.00;;;25.01;81.37
18167;BME280;9208;42.688;23.404;2022-07-01T06:16:16;95578.56;;;25.05;81.05
18167;BME280;9208;42.688;23.404;2022-07-01T06:18:41;95578.00;;;25.07;81.03
18167;BME280;9208;42.688;23.404;2022-07-01T06:21:07;95583.81;;;25.01;80.76
18167;BME280;9208;42.688;23.404;2022-07-01T06:23:32;95581.94;;;25.04;80.54
18167;BME280;9208;42.688;23.404;2022-07-01T06:25:58;95590.34;;;25.04;81.28
18167;BME280;9208;42.688;23.404;2022-07-01T06:28:26;95581.78;;;25.02;80.39
18167;BME280;9208;42.688;23.404;2022-07-01T06:30:55;95590.53;;;25.06;79.88
18167;BME280;9208;42.688;23.404;2022-07-01T06:33:21;95593.09;;;25.11;80.08
18167;BME280;9208;42.688;23.404;2022-07-01T06:35:46;95581.84;;;25.19;79.94
18167;BME280;9208;42.688;23.404;2022-07-01T06:38:12;95586.13;;;25.27;80.74
18167;BME280;9208;42.688;23.404;2022-07-01T06:40:37;95579.38;;;25.30;80.73
18167;BME280;9208;42.688;23.404;2022-07-01T06:43:03;95579.31;;;25.38;79.88
18167;BME280;9208;42.688;23.404;2022-07-01T06:45:28;95576.84;;;25.42;78.86
18167;BME280;9208;42.688;23.404;2022-07-01T06:47:54;95573.28;;;25.41;78.18
18167;BME280;9208;42.688;23.404;2022-07-01T06:50:20;95575.88;;;25.47;77.06
18167;BME280;9208;42.688;23.404;2022-07-01T06:52:45;95587.59;;;25.53;76.25
18167;BME280;9208;42.688;23.404;2022-07-01T06:55:11;95576.88;;;25.59;76.36
18167;BME280;9208;42.688;23.404;2022-07-01T06:57:36;95587.47;;;25.68;75.92
18167;BME280;9208;42.688;23.404;2022-07-01T07:00:02;95581.06;;;25.75;74.65
18167;BME280;9208;42.688;23.404;2022-07-01T07:02:28;95577.44;;;25.82;74.38
18167;BME280;9208;42.688;23.404;2022-07-01T07:04:53;95583.72;;;25.90;74.03
18167;BME280;9208;42.688;23.404;2022-07-01T07:07:23;95581.88;;;25.85;74.94
18167;BME280;9208;42.688;23.404;2022-07-01T07:09:49;95582.06;;;25.87;75.24
18167;BME280;9208;42.688;23.404;2022-07-01T07:12:15;95584.91;;;26.04;73.82
18167;BME280;9208;42.688;23.404;2022-07-01T07:14:40;95583.94;;;26.09;72.69
18167;BME280;9208;42.688;23.404;2022-07-01T07:17:06;95583.09;;;26.16;72.41
18167;BME280;9208;42.688;23.404;2022-07-01T07:19:31;95585.09;;;26.23;72.54
18167;BME280;9208;42.688;23.404;2022-07-01T07:21:57;95575.59;;;26.36;72.23
18167;BME280;9208;42.688;23.404;2022-07-01T07:24:22;95581.88;;;26.44;71.67
18167;BME280;9208;42.688;23.404;2022-07-01T07:26:48;95584.69;;;26.44;72.24
18167;BME280;9208;42.688;23.404;2022-07-01T07:29:13;95588.31;;;26.54;71.53
18167;BME280;9208;42.688;23.404;2022-07-01T07:31:39;95573.84;;;26.57;70.44
18167;BME280;9208;42.688;23.404;2022-07-01T07:34:05;95573.13;;;26.57;70.55
18167;BME280;9208;42.688;23.404;2022-07-01T07:36:30;95572.34;;;26.56;70.05
18167;BME280;9208;42.688;23.404;2022-07-01T07:38:57;95570.38;;;26.66;69.91
18167;BME280;9208;42.688;23.404;2022-07-01T07:41:22;95570.25;;;26.74;69.03
18167;BME280;9208;42.688;23.404;2022-07-01T07:43:48;95567.63;;;26.76;68.71
18167;BME280;9208;42.688;23.404;2022-07-01T07:46:14;95563.22;;;26.82;68.17
18167;BME280;9208;42.688;23.404;2022-07-01T07:48:40;95564.59;;;26.91;68.01
18167;BME280;9208;42.688;23.404;2022-07-01T07:51:08;95563.44;;;26.94;67.85
18167;BME280;9208;42.688;23.404;2022-07-01T07:53:33;95558.41;;;26.92;68.41
18167;BME280;9208;42.688;23.404;2022-07-01T07:55:59;95561.06;;;26.90;68.11
18167;BME280;9208;42.688;23.404;2022-07-01T07:58:25;95562.00;;;27.02;67.68
18167;BME280;9208;42.688;23.404;2022-07-01T08:00:50;95561.88;;;27.10;66.87
18167;BME280;9208;42.688;23.404;2022-07-01T08:03:16;95563.44;;;27.20;66.69
18167;BME280;9208;42.688;23.404;2022-07-01T08:05:41;95566.31;;;27.30;66.24
18167;BME280;9208;42.688;23.404;2022-07-01T08:08:07;95561.31;;;27.38;65.72
18167;BME280;9208;42.688;23.404;2022-07-01T08:10:32;95556.28;;;27.46;65.30
18167;BME280;9208;42.688;23.404;2022-07-01T08:12:57;95556.19;;;27.53;65.02
18167;BME280;9208;42.688;23.404;2022-07-01T08:15:25;95554.72;;;27.62;65.05
18167;BME280;9208;42.688;23.404;2022-07-01T08:17:50;95540.22;;;27.75;65.71
18167;BME280;9208;42.688;23.404;2022-07-01T08:20:16;95538.94;;;27.85;65.68
18167;BME280;9208;42.688;23.404;2022-07-01T08:22:43;95546.97;;;27.98;65.03
18167;BME280;9208;42.688;23.404;2022-07-01T08:25:08;95551.44;;;28.11;64.02
18167;BME280;9208;42.688;23.404;2022-07-01T08:27:34;95556.63;;;28.24;62.14
18167;BME280;9208;42.688;23.404;2022-07-01T08:29:59;95564.66;;;28.37;60.81
18167;BME280;9208;42.688;23.404;2022-07-01T08:32:24;95565.00;;;28.41;60.81
18167;BME280;9208;42.688;23.404;2022-07-01T08:34:51;95552.97;;;28.50;60.63
18167;BME280;9208;42.688;23.404;2022-07-01T08:37:17;95551.47;;;28.49;61.28
18167;BME280;9208;42.688;23.404;2022-07-01T08:39:42;95552.06;;;28.57;61.24
18167;BME280;9208;42.688;23.404;2022-07-01T08:42:07;95541.34;;;28.65;61.01
18167;BME280;9208;42.688;23.404;2022-07-01T08:44:33;95540.31;;;28.79;60.72
18167;BME280;9208;42.688;23.404;2022-07-01T08:46:59;95550.22;;;28.90;60.13
18167;BME280;9208;42.688;23.404;2022-07-01T08:49:24;95562.41;;;28.92;58.50
18167;BME280;9208;42.688;23.404;2022-07-01T08:51:50;95569.38;;;29.10;57.59
18167;BME280;9208;42.688;23.404;2022-07-01T08:54:15;95567.16;;;29.09;57.47
18167;BME280;9208;42.688;23.404;2022-07-01T08:56:41;95566.22;;;29.16;57.25
18167;BME280;9208;42.688;23.404;2022-07-01T08:59:23;95565.63;;;29.17;56.96
18167;BME280;9208;42.688;23.404;2022-07-01T09:01:59;95562.97;;;29.19;56.90
18167;BME280;9208;42.688;23.404;2022-07-01T09:04:26;95555.19;;;29.29;56.92
18167;BME280;9208;42.688;23.404;2022-07-01T09:07:00;95556.34;;;29.36;56.67
18167;BME280;9208;42.688;23.404;2022-07-01T09:09:26;95565.81;;;29.50;56.02
18167;BME280;9208;42.688;23.404;2022-07-01T09:11:53;95568.91;;;29.54;55.25
18167;BME280;9208;42.688;23.404;2022-07-01T09:14:24;95572.66;;;29.56;54.14
18167;BME280;9208;42.688;23.404;2022-07-01T09:16:52;95589.72;;;29.58;53.03
18167;BME280;9208;42.688;23.404;2022-07-01T09:19:19;95584.38;;;29.62;52.89
18167;BME280;9208;42.688;23.404;2022-07-01T09:21:50;95580.16;;;29.73;52.90
18167;BME280;9208;42.688;23.404;2022-07-01T09:24:44;95580.84;;;29.83;52.58
18167;BME280;9208;42.688;23.404;2022-07-01T09:27:14;95587.53;;;29.87;51.97
18167;BME280;9208;42.688;23.404;2022-07-01T09:29:43;95588.19;;;29.97;51.72
18167;BME280;9208;42.688;23.404;2022-07-01T09:32:13;95584.56;;;30.06;51.05
18167;BME280;9208;42.688;23.404;2022-07-01T09:34:50;95604.97;;;30.05;50.01
18167;BME280;9208;42.688;23.404;2022-07-01T09:37:21;95592.75;;;30.12;50.60
18167;BME280;9208;42.688;23.404;2022-07-01T09:39:54;95596.38;;;30.24;50.02
18167;BME280;9208;42.688;23.404;2022-07-01T09:42:22;95593.50;;;30.33;49.73
18167;BME280;9208;42.688;23.404;2022-07-01T09:45:00;95591.81;;;30.40;49.46
18167;BME280;9208;42.688;23.404;2022-07-01T09:47:29;95597.25;;;30.47;48.93
18167;BME280;9208;42.688;23.404;2022-07-01T09:49:56;95602.84;;;30.57;48.47
18167;BME280;9208;42.688;23.404;2022-07-01T09:52:22;95609.50;;;30.61;47.28
18167;BME280;9208;42.688;23.404;2022-07-01T09:54:49;95640.47;;;30.69;44.94
18167;BME280;9208;42.688;23.404;2022-07-01T09:57:15;95665.34;;;30.70;43.14
18167;BME280;9208;42.688;23.404;2022-07-01T09:59:41;95657.91;;;30.65;42.46
18167;BME280;9208;42.688;23.404;2022-07-01T10:02:08;95657.91;;;30.65;42.65
18167;BME280;9208;42.688;23.404;2022-07-01T10:04:36;95647.63;;;30.70;43.48
18167;BME280;9208;42.688;23.404;2022-07-01T10:09:56;95628.78;;;30.95;43.64
18167;BME280;9208;42.688;23.404;2022-07-01T10:12:39;95656.53;;;31.08;41.53
18167;BME280;9208;42.688;23.404;2022-07-01T10:15:08;95666.03;;;31.13;40.83
18167;BME280;9208;42.688;23.404;2022-07-01T10:17:37;95665.38;;;31.24;40.78
18167;BME280;9208;42.688;23.404;2022-07-01T10:20:13;95670.31;;;31.35;40.27
18167;BME280;9208;42.688;23.404;2022-07-01T10:22:40;95657.13;;;31.28;42.01
18167;BME280;9208;42.688;23.404;2022-07-01T10:25:44;95641.03;;;31.42;41.85
18167;BME280;9208;42.688;23.404;2022-07-01T10:28:21;95663.97;;;31.57;39.60
18167;BME280;9208;42.688;23.404;2022-07-01T10:31:17;95668.13;;;31.56;39.62
18167;BME280;9208;42.688;23.404;2022-07-01T10:33:56;95652.66;;;31.69;40.23
18167;BME280;9208;42.688;23.404;2022-07-01T10:41:30;95630.25;;;31.84;40.81
18167;BME280;9208;42.688;23.404;2022-07-01T10:43:57;95663.78;;;32.22;37.39
18167;BME280;9208;42.688;23.404;2022-07-01T10:46:45;95675.28;;;32.36;36.87
18167;BME280;9208;42.688;23.404;2022-07-01T10:49:38;95688.47;;;32.43;35.89
18167;BME280;9208;42.688;23.404;2022-07-01T10:51:57;95722.00;;;32.58;33.48
18167;BME280;9208;42.688;23.404;2022-07-01T11:04:54;95742.94;;;33.11;32.07
18167;BME280;9208;42.688;23.404;2022-07-01T11:07:20;95757.19;;;32.88;32.11
18167;BME280;9208;42.688;23.404;2022-07-01T11:09:45;95767.44;;;32.93;30.72
18167;BME280;9208;42.688;23.404;2022-07-01T11:12:15;95755.81;;;32.77;31.54
18167;BME280;9208;42.688;23.404;2022-07-01T11:14:42;95740.03;;;32.63;31.75
18167;BME280;9208;42.688;23.404;2022-07-01T11:17:08;95732.38;;;32.65;32.18
18167;BME280;9208;42.688;23.404;2022-07-01T11:19:34;95725.22;;;32.64;33.15
18167;BME280;9208;42.688;23.404;2022-07-01T11:21:59;95734.72;;;32.46;32.14
18167;BME280;9208;42.688;23.404;2022-07-01T11:24:25;95733.50;;;32.60;31.92
18167;BME280;9208;42.688;23.404;2022-07-01T11:26:55;95755.09;;;32.54;30.05
18167;BME280;9208;42.688;23.404;2022-07-01T11:29:28;95732.03;;;32.48;32.12
18167;BME280;9208;42.688;23.404;2022-07-01T11:31:54;95713.72;;;32.62;32.52
18167;BME280;9208;42.688;23.404;2022-07-01T11:34:20;95714.47;;;32.74;31.81
18167;BME280;9208;42.688;23.404;2022-07-01T11:36:47;95711.09;;;32.89;32.53
18167;BME280;9208;42.688;23.404;2022-07-01T11:39:32;95699.84;;;33.03;33.38
18167;BME280;9208;42.688;23.404;2022-07-01T11:42:06;95721.44;;;33.08;31.48
18167;BME280;9208;42.688;23.404;2022-07-01T11:44:44;95747.75;;;33.08;29.70
18167;BME280;9208;42.688;23.404;2022-07-01T11:47:22;95764.16;;;33.10;29.13
18167;BME280;9208;42.688;23.404;2022-07-01T11:49:49;95738.78;;;33.25;30.16
18167;BME280;9208;42.688;23.404;2022-07-01T11:52:16;95728.78;;;33.36;30.28
18167;BME280;9208;42.688;23.404;2022-07-01T11:54:44;95749.22;;;33.57;28.46
18167;BME280;9208;42.688;23.404;2022-07-01T11:57:30;95763.75;;;33.63;27.58
18167;BME280;9208;42.688;23.404;2022-07-01T11:59:56;95774.84;;;33.71;27.98
18167;BME280;9208;42.688;23.404;2022-07-01T12:02:23;95764.94;;;33.72;28.25
18167;BME280;9208;42.688;23.404;2022-07-01T12:04:51;95757.50;;;33.78;28.45
18167;BME280;9208;42.688;23.404;2022-07-01T12:07:19;95772.13;;;33.98;27.52
18167;BME280;9208;42.688;23.404;2022-07-01T12:09:47;95774.38;;;34.13;26.98
18167;BME280;9208;42.688;23.404;2022-07-01T12:12:20;95771.13;;;34.18;27.19
18167;BME280;9208;42.688;23.404;2022-07-01T12:14:50;95790.38;;;34.06;25.92
18167;BME280;9208;42.688;23.404;2022-07-01T12:17:17;95774.91;;;34.09;27.44
18167;BME280;9208;42.688;23.404;2022-07-01T12:19:43;95768.69;;;34.13;27.47
18167;BME280;9208;42.688;23.404;2022-07-01T12:22:13;95762.47;;;34.03;27.59
18167;BME280;9208;42.688;23.404;2022-07-01T12:24:41;95745.91;;;33.74;28.20
18167;BME280;9208;42.688;23.404;2022-07-01T12:27:08;95734.13;;;34.05;28.68
18167;BME280;9208;42.688;23.404;2022-07-01T12:32:06;95732.44;;;34.13;28.76
18167;BME280;9208;42.688;23.404;2022-07-01T12:37:12;95707.88;;;34.06;29.43
18167;BME280;9208;42.688;23.404;2022-07-01T12:39:49;95701.44;;;34.06;30.02
18167;BME280;9208;42.688;23.404;2022-07-01T12:44:53;95673.00;;;34.06;32.40
18167;BME280;9208;42.688;23.404;2022-07-01T12:47:23;95618.41;;;34.09;35.82
18167;BME280;9208;42.688;23.404;2022-07-01T12:49:50;95597.44;;;34.03;36.64
18167;BME280;9208;42.688;23.404;2022-07-01T12:52:28;95593.31;;;34.06;36.76
18167;BME280;9208;42.688;23.404;2022-07-01T12:54:56;95580.88;;;33.99;37.62
18167;BME280;9208;42.688;23.404;2022-07-01T12:57:30;95553.38;;;33.90;39.05
18167;BME280;9208;42.688;23.404;2022-07-01T12:59:56;95547.78;;;33.79;38.42
18167;BME280;9208;42.688;23.404;2022-07-01T13:02:22;95575.47;;;33.78;36.56
18167;BME280;9208;42.688;23.404;2022-07-01T13:04:47;95571.88;;;33.64;36.34
18167;BME280;9208;42.688;23.404;2022-07-01T13:07:12;95580.19;;;33.60;36.20
18167;BME280;9208;42.688;23.404;2022-07-01T13:09:38;95577.97;;;33.59;36.49
18167;BME280;9208;42.688;23.404;2022-07-01T13:12:04;95569.44;;;33.59;37.13
18167;BME280;9208;42.688;23.404;2022-07-01T13:14:29;95558.91;;;33.61;37.71
18167;BME280;9208;42.688;23.404;2022-07-01T13:16:55;95549.03;;;33.62;38.92
18167;BME280;9208;42.688;23.404;2022-07-01T13:19:20;95540.72;;;33.66;38.58
18167;BME280;9208;42.688;23.404;2022-07-01T13:21:46;95540.59;;;33.64;39.00
18167;BME280;9208;42.688;23.404;2022-07-01T13:24:11;95544.50;;;33.57;38.04
18167;BME280;9208;42.688;23.404;2022-07-01T13:26:39;95543.75;;;33.57;38.01
18167;BME280;9208;42.688;23.404;2022-07-01T13:29:05;95538.38;;;33.49;38.17
18167;BME280;9208;42.688;23.404;2022-07-01T13:31:31;95522.03;;;33.36;39.28